sensor_id;sensor_type;location;lat;lon;timestamp;pressure;altitude;pressure_sealevel;temperature;humidity
64610;BME280;51019;46.090;6.350;2022-07-12T00:02:16;96978.75;;;16.12;79.51
64610;BME280;51019;46.090;6.350;2022-07-12T00:04:42;96956.09;;;15.85;80.11
64610;BME280;51019;46.090;6.350;2022-07-12T00:07:08;96977.22;;;15.93;80.35
64610;BME280;51019;46.090;6.350;2022-07-12T00:09:33;96962.38;;;16.08;79.82
64610;BME280;51019;46.090;6.350;2022-07-12T00:11:59;96969.47;;;16.08;80.29
64610;BME280;51019;46.090;6.350;2022-07-12T00:14:26;96980.03;;;16.08;80.96
64610;BME280;51019;46.090;6.350;2022-07-12T00:16:51;96986.00;;;16.18;80.41
64610;BME280;51019;46.090;6.350;2022-07-12T00:19:17;96977.69;;;16.53;78.38
64610;BME280;51019;46.090;6.350;2022-07-12T00:21:43;96987.16;;;15.99;80.03
64610;BME280;51019;46.090;6.350;2022-07-12T00:24:08;96992.44;;;15.75;81.62
64610;BME280;51019;46.090;6.350;2022-07-12T00:26:34;96987.66;;;15.86;81.24
64610;BME280;51019;46.090;6.350;2022-07-12T00:29:02;96992.59;;;15.81;81.33
64610;BME280;51019;46.090;6.350;2022-07-12T00:31:27;96998.38;;;15.69;81.89
64610;BME280;51019;46.090;6.350;2022-07-12T00:33:53;96991.19;;;15.53;82.65
64610;BME280;51019;46.090;6.350;2022-07-12T00:36:20;97005.13;;;15.71;82.54
64610;BME280;51019;46.090;6.350;2022-07-12T00:38:46;97000.88;;;15.86;81.96
64610;BME280;51019;46.090;6.350;2022-07-12T00:41:11;97002.50;;;15.95;81.45
64610;BME280;51019;46.090;6.350;2022-07-12T00:43:37;96995.25;;;15.89;81.48
64610;BME280;51019;46.090;6.350;2022-07-12T00:46:04;96990.63;;;16.00;80.89
64610;BME280;51019;46.090;6.350;2022-07-12T00:48:32;97006.97;;;15.95;81.51
64610;BME280;51019;46.090;6.350;2022-07-12T00:50:59;97016.22;;;15.83;81.13
64610;BME280;51019;46.090;6.350;2022-07-12T00:53:25;97013.22;;;15.70;81.30
64610;BME280;51019;46.090;6.350;2022-07-12T00:55:57;97006.94;;;15.63;81.98
64610;BME280;51019;46.090;6.350;2022-07-12T00:58:27;97014.44;;;15.41;82.37
64610;BME280;51019;46.090;6.350;2022-07-12T01:00:58;97013.09;;;15.29;83.28
64610;BME280;51019;46.090;6.350;2022-07-12T01:03:24;97006.13;;;15.20;83.26
64610;BME280;51019;46.090;6.350;2022-07-12T01:05:50;97015.03;;;15.19;83.45
64610;BME280;51019;46.090;6.350;2022-07-12T01:08:18;97004.31;;;15.20;83.24
64610;BME280;51019;46.090;6.350;2022-07-12T01:10:44;97005.69;;;15.41;83.31
64610;BME280;51019;46.090;6.350;2022-07-12T01:13:12;97015.97;;;15.52;81.91
64610;BME280;51019;46.090;6.350;2022-07-12T01:15:38;97006.06;;;15.46;81.70
64610;BME280;51019;46.090;6.350;2022-07-12T01:18:03;97014.84;;;15.54;81.06
64610;BME280;51019;46.090;6.350;2022-07-12T01:20:29;97001.38;;;15.23;82.22
64610;BME280;51019;46.090;6.350;2022-07-12T01:22:57;97025.81;;;15.34;82.51
64610;BME280;51019;46.090;6.350;2022-07-12T01:25:26;97019.66;;;15.25;81.81
64610;BME280;51019;46.090;6.350;2022-07-12T01:27:52;97020.34;;;14.93;82.98
64610;BME280;51019;46.090;6.350;2022-07-12T01:30:19;97028.63;;;14.64;84.59
64610;BME280;51019;46.090;6.350;2022-07-12T01:32:45;97026.09;;;14.55;85.30
64610;BME280;51019;46.090;6.350;2022-07-12T01:35:13;97012.75;;;14.38;86.15
64610;BME280;51019;46.090;6.350;2022-07-12T01:37:41;97022.06;;;14.42;85.99
64610;BME280;51019;46.090;6.350;2022-07-12T01:40:09;97028.81;;;14.45;86.15
64610;BME280;51019;46.090;6.350;2022-07-12T01:42:35;97020.09;;;14.44;85.89
64610;BME280;51019;46.090;6.350;2022-07-12T01:45:00;97017.50;;;14.52;86.15
64610;BME280;51019;46.090;6.350;2022-07-12T01:47:30;97017.34;;;14.36;86.82
64610;BME280;51019;46.090;6.350;2022-07-12T01:49:57;97028.34;;;14.49;86.73
64610;BME280;51019;46.090;6.350;2022-07-12T01:52:23;97026.25;;;14.53;86.84
64610;BME280;51019;46.090;6.350;2022-07-12T01:54:49;97029.22;;;14.58;87.61
64610;BME280;51019;46.090;6.350;2022-07-12T01:57:15;97030.59;;;14.88;85.14
64610;BME280;51019;46.090;6.350;2022-07-12T01:59:41;97030.84;;;14.77;85.26
64610;BME280;51019;46.090;6.350;2022-07-12T02:02:07;97001.69;;;14.52;86.05
64610;BME280;51019;46.090;6.350;2022-07-12T02:04:33;97029.22;;;14.58;85.71
64610;BME280;51019;46.090;6.350;2022-07-12T02:06:59;97022.88;;;14.43;86.47
64610;BME280;51019;46.090;6.350;2022-07-12T02:09:26;97034.66;;;14.57;86.04
64610;BME280;51019;46.090;6.350;2022-07-12T02:11:53;97041.75;;;14.38;86.99
64610;BME280;51019;46.090;6.350;2022-07-12T02:14:19;97032.44;;;14.26;86.78
64610;BME280;51019;46.090;6.350;2022-07-12T02:16:46;97011.53;;;14.07;87.03
64610;BME280;51019;46.090;6.350;2022-07-12T02:19:12;97036.56;;;14.46;86.01
64610;BME280;51019;46.090;6.350;2022-07-12T02:21:39;97038.78;;;14.33;86.14
64610;BME280;51019;46.090;6.350;2022-07-12T02:24:05;97043.69;;;14.10;86.57
64610;BME280;51019;46.090;6.350;2022-07-12T02:26:35;97050.25;;;14.06;86.64
64610;BME280;51019;46.090;6.350;2022-07-12T02:29:04;97052.72;;;14.08;87.10
64610;BME280;51019;46.090;6.350;2022-07-12T02:31:31;97041.59;;;13.96;87.05
64610;BME280;51019;46.090;6.350;2022-07-12T02:33:57;97037.50;;;14.02;86.61
64610;BME280;51019;46.090;6.350;2022-07-12T02:36:24;97037.00;;;13.98;86.96
64610;BME280;51019;46.090;6.350;2022-07-12T02:38:51;97050.19;;;13.98;87.02
64610;BME280;51019;46.090;6.350;2022-07-12T02:41:17;97049.31;;;13.80;88.71
64610;BME280;51019;46.090;6.350;2022-07-12T02:43:43;97039.75;;;13.79;87.04
64610;BME280;51019;46.090;6.350;2022-07-12T02:46:13;97058.97;;;13.89;86.53
64610;BME280;51019;46.090;6.350;2022-07-12T02:48:39;97059.59;;;13.56;87.78
64610;BME280;51019;46.090;6.350;2022-07-12T02:51:07;97043.50;;;13.41;89.79
64610;BME280;51019;46.090;6.350;2022-07-12T02:53:33;97058.75;;;13.37;91.07
64610;BME280;51019;46.090;6.350;2022-07-12T02:55:59;97058.25;;;13.52;90.93
64610;BME280;51019;46.090;6.350;2022-07-12T02:58:25;97053.31;;;13.66;89.49
64610;BME280;51019;46.090;6.350;2022-07-12T03:00:51;97055.78;;;13.50;90.74
64610;BME280;51019;46.090;6.350;2022-07-12T03:03:17;97045.38;;;13.31;90.80
64610;BME280;51019;46.090;6.350;2022-07-12T03:05:43;97045.53;;;13.47;89.93
64610;BME280;51019;46.090;6.350;2022-07-12T03:08:10;97036.09;;;13.54;89.37
64610;BME280;51019;46.090;6.350;2022-07-12T03:10:36;97055.34;;;13.72;89.21
64610;BME280;51019;46.090;6.350;2022-07-12T03:13:02;97054.44;;;13.64;89.53
64610;BME280;51019;46.090;6.350;2022-07-12T03:15:29;97043.16;;;13.54;90.22
64610;BME280;51019;46.090;6.350;2022-07-12T03:17:55;97060.00;;;13.78;88.30
64610;BME280;51019;46.090;6.350;2022-07-12T03:20:21;97069.84;;;13.59;88.93
64610;BME280;51019;46.090;6.350;2022-07-12T03:22:47;97076.09;;;13.58;89.47
64610;BME280;51019;46.090;6.350;2022-07-12T03:25:15;97074.06;;;13.52;89.13
64610;BME280;51019;46.090;6.350;2022-07-12T03:27:41;97074.78;;;13.17;91.36
64610;BME280;51019;46.090;6.350;2022-07-12T03:30:08;97062.47;;;13.07;90.57
64610;BME280;51019;46.090;6.350;2022-07-12T03:32:34;97083.81;;;13.41;89.88
64610;BME280;51019;46.090;6.350;2022-07-12T03:35:00;97088.53;;;13.38;89.98
64610;BME280;51019;46.090;6.350;2022-07-12T03:37:27;97097.81;;;13.42;89.76
64610;BME280;51019;46.090;6.350;2022-07-12T03:39:53;97097.97;;;13.40;90.30
64610;BME280;51019;46.090;6.350;2022-07-12T03:42:21;97065.03;;;13.27;90.11
64610;BME280;51019;46.090;6.350;2022-07-12T03:44:47;97089.47;;;13.19;90.44
64610;BME280;51019;46.090;6.350;2022-07-12T03:47:13;97089.81;;;13.61;88.60
64610;BME280;51019;46.090;6.350;2022-07-12T03:49:39;97062.25;;;13.56;86.58
64610;BME280;51019;46.090;6.350;2022-07-12T03:52:04;97100.06;;;13.64;87.35
64610;BME280;51019;46.090;6.350;2022-07-12T03:54:30;97094.44;;;13.22;89.71
64610;BME280;51019;46.090;6.350;2022-07-12T03:56:56;97095.84;;;13.17;90.58
64610;BME280;51019;46.090;6.350;2022-07-12T03:59:40;97100.25;;;13.26;90.57
64610;BME280;51019;46.090;6.350;2022-07-12T04:02:06;97108.44;;;13.50;89.22
64610;BME280;51019;46.090;6.350;2022-07-12T04:04:33;97113.09;;;13.56;88.81
64610;BME280;51019;46.090;6.350;2022-07-12T04:06:58;97112.28;;;13.28;90.73
64610;BME280;51019;46.090;6.350;2022-07-12T04:09:24;97109.00;;;13.17;91.53
64610;BME280;51019;46.090;6.350;2022-07-12T04:11:49;97093.59;;;13.22;91.04
64610;BME280;51019;46.090;6.350;2022-07-12T04:14:15;97115.84;;;13.37;90.69
64610;BME280;51019;46.090;6.350;2022-07-12T04:16:41;97115.09;;;13.44;90.52
64610;BME280;51019;46.090;6.350;2022-07-12T04:19:07;97116.75;;;13.45;90.81
64610;BME280;51019;46.090;6.350;2022-07-12T04:21:36;97108.72;;;13.74;88.69
64610;BME280;51019;46.090;6.350;2022-07-12T04:24:02;97112.44;;;13.54;88.58
64610;BME280;51019;46.090;6.350;2022-07-12T04:26:28;97115.34;;;13.24;90.92
64610;BME280;51019;46.090;6.350;2022-07-12T04:28:54;97102.78;;;13.18;91.94
64610;BME280;51019;46.090;6.350;2022-07-12T04:31:21;97117.81;;;13.62;90.83
64610;BME280;51019;46.090;6.350;2022-07-12T04:33:46;97108.88;;;13.73;89.60
64610;BME280;51019;46.090;6.350;2022-07-12T04:36:12;97096.97;;;13.69;89.17
64610;BME280;51019;46.090;6.350;2022-07-12T04:38:38;97124.09;;;13.97;88.73
64610;BME280;51019;46.090;6.350;2022-07-12T04:41:04;97119.88;;;13.86;89.24
64610;BME280;51019;46.090;6.350;2022-07-12T04:43:31;97115.28;;;13.88;89.32
64610;BME280;51019;46.090;6.350;2022-07-12T04:46:09;97120.94;;;14.11;88.65
64610;BME280;51019;46.090;6.350;2022-07-12T04:48:35;97122.84;;;14.18;87.81
64610;BME280;51019;46.090;6.350;2022-07-12T04:51:01;97132.78;;;14.07;87.76
64610;BME280;51019;46.090;6.350;2022-07-12T04:53:27;97121.53;;;14.05;87.50
64610;BME280;51019;46.090;6.350;2022-07-12T04:55:54;97114.31;;;14.07;87.12
64610;BME280;51019;46.090;6.350;2022-07-12T04:58:20;97136.31;;;14.15;86.66
64610;BME280;51019;46.090;6.350;2022-07-12T05:00:45;97137.13;;;14.16;87.21
64610;BME280;51019;46.090;6.350;2022-07-12T05:03:11;97138.28;;;14.31;86.65
64610;BME280;51019;46.090;6.350;2022-07-12T05:05:36;97133.59;;;14.25;86.19
64610;BME280;51019;46.090;6.350;2022-07-12T05:08:03;97136.69;;;14.38;85.90
64610;BME280;51019;46.090;6.350;2022-07-12T05:10:29;97148.34;;;14.36;86.16
64610;BME280;51019;46.090;6.350;2022-07-12T05:12:55;97152.75;;;14.45;85.91
64610;BME280;51019;46.090;6.350;2022-07-12T05:15:21;97151.78;;;14.64;85.57
64610;BME280;51019;46.090;6.350;2022-07-12T05:17:47;97135.91;;;14.81;84.87
64610;BME280;51019;46.090;6.350;2022-07-12T05:20:12;97158.56;;;15.10;84.00
64610;BME280;51019;46.090;6.350;2022-07-12T05:22:38;97155.22;;;15.34;83.39
64610;BME280;51019;46.090;6.350;2022-07-12T05:25:05;97161.94;;;15.54;82.57
64610;BME280;51019;46.090;6.350;2022-07-12T05:27:30;97127.94;;;15.59;82.38
64610;BME280;51019;46.090;6.350;2022-07-12T05:29:56;97145.34;;;15.70;82.18
64610;BME280;51019;46.090;6.350;2022-07-12T05:32:22;97146.94;;;15.54;83.59
64610;BME280;51019;46.090;6.350;2022-07-12T05:34:49;97151.94;;;15.66;83.69
64610;BME280;51019;46.090;6.350;2022-07-12T05:37:14;97142.34;;;15.56;83.53
64610;BME280;51019;46.090;6.350;2022-07-12T05:39:40;97141.88;;;15.69;83.91
64610;BME280;51019;46.090;6.350;2022-07-12T05:42:06;97140.66;;;16.06;82.73
64610;BME280;51019;46.090;6.350;2022-07-12T05:44:32;97150.16;;;16.57;81.59
64610;BME280;51019;46.090;6.350;2022-07-12T05:46:59;97145.06;;;16.80;78.83
64610;BME280;51019;46.090;6.350;2022-07-12T05:49:26;97137.28;;;16.78;77.72
64610;BME280;51019;46.090;6.350;2022-07-12T05:51:52;97143.31;;;17.27;75.17
64610;BME280;51019;46.090;6.350;2022-07-12T05:54:36;97136.84;;;17.85;74.16
64610;BME280;51019;46.090;6.350;2022-07-12T05:57:02;97133.81;;;17.96;74.70
64610;BME280;51019;46.090;6.350;2022-07-12T05:59:28;97137.91;;;18.07;71.89
64610;BME280;51019;46.090;6.350;2022-07-12T06:01:55;97147.94;;;18.20;72.04
64610;BME280;51019;46.090;6.350;2022-07-12T06:04:22;97150.16;;;18.16;71.72
64610;BME280;51019;46.090;6.350;2022-07-12T06:06:49;97146.66;;;18.69;69.99
64610;BME280;51019;46.090;6.350;2022-07-12T06:09:14;97145.00;;;18.68;69.26
64610;BME280;51019;46.090;6.350;2022-07-12T06:11:40;97150.31;;;19.20;68.07
64610;BME280;51019;46.090;6.350;2022-07-12T06:14:06;97132.84;;;19.26;66.71
64610;BME280;51019;46.090;6.350;2022-07-12T06:16:32;97145.16;;;19.56;67.35
64610;BME280;51019;46.090;6.350;2022-07-12T06:18:58;97150.06;;;19.45;68.93
64610;BME280;51019;46.090;6.350;2022-07-12T06:21:24;97162.19;;;19.47;68.61
64610;BME280;51019;46.090;6.350;2022-07-12T06:23:49;97174.53;;;19.26;70.21
64610;BME280;51019;46.090;6.350;2022-07-12T06:26:15;97166.09;;;19.22;70.52
64610;BME280;51019;46.090;6.350;2022-07-12T06:28:41;97160.50;;;18.79;69.82
64610;BME280;51019;46.090;6.350;2022-07-12T06:31:06;97148.13;;;18.72;70.06
64610;BME280;51019;46.090;6.350;2022-07-12T06:33:32;97171.88;;;18.65;70.54
64610;BME280;51019;46.090;6.350;2022-07-12T06:35:57;97191.34;;;19.03;69.54
64610;BME280;51019;46.090;6.350;2022-07-12T06:38:22;97175.00;;;18.92;70.03
64610;BME280;51019;46.090;6.350;2022-07-12T06:40:48;97177.06;;;19.56;67.42
64610;BME280;51019;46.090;6.350;2022-07-12T06:43:15;97164.00;;;20.06;64.79
64610;BME280;51019;46.090;6.350;2022-07-12T06:45:41;97150.53;;;20.07;63.29
64610;BME280;51019;46.090;6.350;2022-07-12T06:48:07;97174.03;;;19.60;64.50
64610;BME280;51019;46.090;6.350;2022-07-12T06:50:33;97160.81;;;18.84;66.06
64610;BME280;51019;46.090;6.350;2022-07-12T06:52:58;97143.69;;;19.69;64.31
64610;BME280;51019;46.090;6.350;2022-07-12T06:55:24;97142.50;;;19.71;63.77
64610;BME280;51019;46.090;6.350;2022-07-12T06:57:53;97157.41;;;19.87;64.21
64610;BME280;51019;46.090;6.350;2022-07-12T07:00:18;97129.31;;;19.63;64.37
64610;BME280;51019;46.090;6.350;2022-07-12T07:02:43;97156.53;;;20.94;61.15
64610;BME280;51019;46.090;6.350;2022-07-12T07:05:09;97148.31;;;21.17;61.04
64610;BME280;51019;46.090;6.350;2022-07-12T07:07:36;97142.50;;;21.35;60.70
64610;BME280;51019;46.090;6.350;2022-07-12T07:10:02;97152.13;;;21.29;60.79
64610;BME280;51019;46.090;6.350;2022-07-12T07:12:27;97147.50;;;21.45;58.61
64610;BME280;51019;46.090;6.350;2022-07-12T07:14:53;97140.94;;;20.91;59.73
64610;BME280;51019;46.090;6.350;2022-07-12T07:17:19;97134.59;;;20.92;58.38
64610;BME280;51019;46.090;6.350;2022-07-12T07:19:45;97166.81;;;20.97;59.96
64610;BME280;51019;46.090;6.350;2022-07-12T07:22:12;97169.78;;;21.30;59.66
64610;BME280;51019;46.090;6.350;2022-07-12T07:24:38;97158.81;;;21.19;57.14
64610;BME280;51019;46.090;6.350;2022-07-12T07:27:04;97168.69;;;21.25;57.80
64610;BME280;51019;46.090;6.350;2022-07-12T07:29:31;97141.69;;;21.07;57.25
64610;BME280;51019;46.090;6.350;2022-07-12T07:32:15;97163.72;;;21.78;56.22
64610;BME280;51019;46.090;6.350;2022-07-12T07:34:44;97167.59;;;21.41;56.25
64610;BME280;51019;46.090;6.350;2022-07-12T07:37:10;97178.06;;;21.77;56.24
64610;BME280;51019;46.090;6.350;2022-07-12T07:39:36;97175.53;;;22.03;56.02
64610;BME280;51019;46.090;6.350;2022-07-12T07:42:03;97172.59;;;22.32;55.88
64610;BME280;51019;46.090;6.350;2022-07-12T07:44:29;97174.47;;;22.45;54.56
64610;BME280;51019;46.090;6.350;2022-07-12T07:46:55;97137.38;;;22.76;53.50
64610;BME280;51019;46.090;6.350;2022-07-12T07:49:21;97148.06;;;23.09;52.17
64610;BME280;51019;46.090;6.350;2022-07-12T07:51:46;97178.59;;;22.54;52.85
64610;BME280;51019;46.090;6.350;2022-07-12T07:54:12;97170.47;;;23.08;52.94
64610;BME280;51019;46.090;6.350;2022-07-12T07:56:38;97159.50;;;22.57;54.48
64610;BME280;51019;46.090;6.350;2022-07-12T07:59:03;97166.31;;;22.66;54.00
64610;BME280;51019;46.090;6.350;2022-07-12T08:01:30;97160.66;;;22.28;54.69
64610;BME280;51019;46.090;6.350;2022-07-12T08:04:15;97161.41;;;23.36;51.34
64610;BME280;51019;46.090;6.350;2022-07-12T08:06:42;97164.94;;;23.23;50.71
64610;BME280;51019;46.090;6.350;2022-07-12T08:09:08;97148.66;;;22.04;54.41
64610;BME280;51019;46.090;6.350;2022-07-12T08:11:34;97160.78;;;22.94;52.17
64610;BME280;51019;46.090;6.350;2022-07-12T08:14:00;97152.56;;;23.15;51.44
64610;BME280;51019;46.090;6.350;2022-07-12T08:16:26;97160.19;;;22.79;51.97
64610;BME280;51019;46.090;6.350;2022-07-12T08:18:52;97146.00;;;23.25;49.86
64610;BME280;51019;46.090;6.350;2022-07-12T08:21:18;97127.88;;;23.40;50.65
64610;BME280;51019;46.090;6.350;2022-07-12T08:23:44;97149.97;;;24.00;49.67
64610;BME280;51019;46.090;6.350;2022-07-12T08:26:11;97149.53;;;24.03;49.11
64610;BME280;51019;46.090;6.350;2022-07-12T08:28:41;97146.38;;;24.19;49.60
64610;BME280;51019;46.090;6.350;2022-07-12T08:31:07;97162.06;;;23.11;50.46
64610;BME280;51019;46.090;6.350;2022-07-12T08:33:36;97153.34;;;22.57;53.06
64610;BME280;51019;46.090;6.350;2022-07-12T08:36:03;97147.50;;;23.98;50.13
64610;BME280;51019;46.090;6.350;2022-07-12T08:38:29;97152.31;;;24.28;48.59
64610;BME280;51019;46.090;6.350;2022-07-12T08:40:56;97154.22;;;23.30;50.66
64610;BME280;51019;46.090;6.350;2022-07-12T08:43:21;97149.78;;;24.39;50.03
64610;BME280;51019;46.090;6.350;2022-07-12T08:45:47;97150.56;;;25.16;48.48
64610;BME280;51019;46.090;6.350;2022-07-12T08:48:16;97150.88;;;25.01;46.71
64610;BME280;51019;46.090;6.350;2022-07-12T08:50:42;97147.38;;;24.63;48.95
64610;BME280;51019;46.090;6.350;2022-07-12T08:53:11;97147.59;;;25.67;46.49
64610;BME280;51019;46.090;6.350;2022-07-12T08:55:41;97142.22;;;26.03;46.28
64610;BME280;51019;46.090;6.350;2022-07-12T08:58:15;97143.38;;;26.44;45.62
64610;BME280;51019;46.090;6.350;2022-07-12T09:00:42;97154.06;;;26.32;46.46
64610;BME280;51019;46.090;6.350;2022-07-12T09:03:07;97148.53;;;25.54;46.98
64610;BME280;51019;46.090;6.350;2022-07-12T09:05:34;97135.34;;;24.78;49.72
64610;BME280;51019;46.090;6.350;2022-07-12T09:08:09;97147.28;;;25.75;46.24
64610;BME280;51019;46.090;6.350;2022-07-12T09:11:01;97131.78;;;24.53;50.56
64610;BME280;51019;46.090;6.350;2022-07-12T09:13:52;97130.91;;;25.83;46.25
64610;BME280;51019;46.090;6.350;2022-07-12T09:16:19;97130.44;;;25.86;44.36
64610;BME280;51019;46.090;6.350;2022-07-12T09:18:51;97147.59;;;25.67;44.26
64610;BME280;51019;46.090;6.350;2022-07-12T09:21:36;97147.34;;;26.23;43.52
64610;BME280;51019;46.090;6.350;2022-07-12T09:24:02;97135.88;;;25.98;43.83
64610;BME280;51019;46.090;6.350;2022-07-12T09:26:32;97134.78;;;26.65;42.28
64610;BME280;51019;46.090;6.350;2022-07-12T09:29:08;97149.78;;;27.15;41.23
64610;BME280;51019;46.090;6.350;2022-07-12T09:31:44;97138.25;;;27.61;41.22
64610;BME280;51019;46.090;6.350;2022-07-12T09:34:29;97132.47;;;27.80;40.32
64610;BME280;51019;46.090;6.350;2022-07-12T09:37:14;97133.16;;;26.64;41.84
64610;BME280;51019;46.090;6.350;2022-07-12T09:39:40;97143.41;;;26.86;42.20
64610;BME280;51019;46.090;6.350;2022-07-12T09:42:08;97126.75;;;27.19;41.75
64610;BME280;51019;46.090;6.350;2022-07-12T09:44:35;97146.88;;;27.39;41.01
64610;BME280;51019;46.090;6.350;2022-07-12T09:47:01;97134.06;;;28.05;38.58
64610;BME280;51019;46.090;6.350;2022-07-12T09:49:27;97141.38;;;28.61;40.42
64610;BME280;51019;46.090;6.350;2022-07-12T09:51:56;97135.06;;;28.84;38.63
64610;BME280;51019;46.090;6.350;2022-07-12T09:54:27;97145.25;;;28.65;38.63
64610;BME280;51019;46.090;6.350;2022-07-12T09:56:56;97139.75;;;28.32;38.55
64610;BME280;51019;46.090;6.350;2022-07-12T09:59:23;97144.53;;;27.55;38.61
64610;BME280;51019;46.090;6.350;2022-07-12T10:01:54;97130.31;;;28.46;38.44
64610;BME280;51019;46.090;6.350;2022-07-12T10:04:22;97070.94;;;27.61;39.32
64610;BME280;51019;46.090;6.350;2022-07-12T10:06:48;97116.59;;;28.93;36.82
64610;BME280;51019;46.090;6.350;2022-07-12T10:09:16;97120.88;;;28.60;37.46
64610;BME280;51019;46.090;6.350;2022-07-12T10:11:42;97118.47;;;28.07;39.38
64610;BME280;51019;46.090;6.350;2022-07-12T10:14:12;97129.13;;;28.70;39.14
64610;BME280;51019;46.090;6.350;2022-07-12T10:16:42;97106.94;;;28.80;39.38
64610;BME280;51019;46.090;6.350;2022-07-12T10:21:54;97134.66;;;29.25;37.56
64610;BME280;51019;46.090;6.350;2022-07-12T10:26:59;97121.84;;;28.54;37.20
64610;BME280;51019;46.090;6.350;2022-07-12T10:29:25;97118.16;;;28.88;37.56
64610;BME280;51019;46.090;6.350;2022-07-12T10:31:51;97124.91;;;29.58;36.19
64610;BME280;51019;46.090;6.350;2022-07-12T10:39:23;97089.38;;;29.44;35.35
64610;BME280;51019;46.090;6.350;2022-07-12T10:44:36;97120.75;;;29.50;36.30
64610;BME280;51019;46.090;6.350;2022-07-12T10:47:03;97121.44;;;30.45;34.16
64610;BME280;51019;46.090;6.350;2022-07-12T10:49:30;97116.22;;;28.27;38.59
64610;BME280;51019;46.090;6.350;2022-07-12T10:57:05;97113.31;;;30.45;36.59
64610;BME280;51019;46.090;6.350;2022-07-12T10:59:36;97110.94;;;29.83;36.01
64610;BME280;51019;46.090;6.350;2022-07-12T11:02:03;97110.44;;;30.78;34.42
64610;BME280;51019;46.090;6.350;2022-07-12T11:04:30;97109.97;;;29.17;37.30
64610;BME280;51019;46.090;6.350;2022-07-12T11:07:01;97108.66;;;30.62;33.80
64610;BME280;51019;46.090;6.350;2022-07-12T11:09:27;97110.84;;;30.92;32.97
64610;BME280;51019;46.090;6.350;2022-07-12T11:11:53;97108.09;;;30.60;35.32
64610;BME280;51019;46.090;6.350;2022-07-12T11:14:26;97111.06;;;31.59;33.03
64610;BME280;51019;46.090;6.350;2022-07-12T11:16:53;97111.28;;;31.16;33.42
64610;BME280;51019;46.090;6.350;2022-07-12T11:19:24;97095.28;;;30.28;35.85
64610;BME280;51019;46.090;6.350;2022-07-12T11:21:51;97106.00;;;32.30;32.39
64610;BME280;51019;46.090;6.350;2022-07-12T11:24:29;97115.84;;;31.94;32.93
64610;BME280;51019;46.090;6.350;2022-07-12T11:26:55;97099.84;;;29.07;36.64
64610;BME280;51019;46.090;6.350;2022-07-12T11:29:21;97104.38;;;28.73;37.63
64610;BME280;51019;46.090;6.350;2022-07-12T11:31:47;97111.97;;;31.33;34.02
64610;BME280;51019;46.090;6.350;2022-07-12T11:36:46;97098.13;;;31.24;34.48
64610;BME280;51019;46.090;6.350;2022-07-12T11:39:12;97083.72;;;32.18;32.66
64610;BME280;51019;46.090;6.350;2022-07-12T11:41:37;97099.94;;;30.55;34.03
64610;BME280;51019;46.090;6.350;2022-07-12T11:44:06;97076.72;;;32.32;31.37
64610;BME280;51019;46.090;6.350;2022-07-12T11:46:31;97073.59;;;31.93;34.52
64610;BME280;51019;46.090;6.350;2022-07-12T11:48:57;97088.34;;;32.23;32.90
64610;BME280;51019;46.090;6.350;2022-07-12T11:51:26;97091.31;;;30.58;34.16
64610;BME280;51019;46.090;6.350;2022-07-12T11:53:54;97074.63;;;32.75;30.42
64610;BME280;51019;46.090;6.350;2022-07-12T11:56:29;97082.25;;;30.74;33.46
64610;BME280;51019;46.090;6.350;2022-07-12T11:58:57;97080.06;;;31.03;33.10
64610;BME280;51019;46.090;6.350;2022-07-12T12:01:24;97076.25;;;33.01;31.44
64610;BME280;51019;46.090;6.350;2022-07-12T12:03:51;97076.25;;;33.22;29.48
64610;BME280;51019;46.090;6.350;2022-07-12T12:06:17;97077.34;;;33.41;29.77
64610;BME280;51019;46.090;6.350;2022-07-12T12:08:43;97074.56;;;31.72;32.89
64610;BME280;51019;46.090;6.350;2022-07-12T12:11:10;97062.91;;;30.60;32.23
64610;BME280;51019;46.090;6.350;2022-07-12T12:13:35;97067.00;;;32.62;30.32
64610;BME280;51019;46.090;6.350;2022-07-12T12:16:03;97049.94;;;33.07;28.87
64610;BME280;51019;46.090;6.350;2022-07-12T12:18:35;97057.50;;;33.35;31.22
64610;BME280;51019;46.090;6.350;2022-07-12T12:21:06;97037.63;;;32.18;29.87
64610;BME280;51019;46.090;6.350;2022-07-12T12:23:32;97037.44;;;32.91;29.11
64610;BME280;51019;46.090;6.350;2022-07-12T12:26:18;97041.50;;;32.58;30.69
64610;BME280;51019;46.090;6.350;2022-07-12T12:28:53;97034.44;;;32.36;31.90
64610;BME280;51019;46.090;6.350;2022-07-12T12:31:21;97046.75;;;31.92;30.14
64610;BME280;51019;46.090;6.350;2022-07-12T12:33:48;97042.25;;;33.54;27.77
64610;BME280;51019;46.090;6.350;2022-07-12T12:36:24;97035.09;;;31.96;29.23
64610;BME280;51019;46.090;6.350;2022-07-12T12:38:52;97029.53;;;32.64;27.73
64610;BME280;51019;46.090;6.350;2022-07-12T12:41:18;97032.38;;;31.91;28.77
64610;BME280;51019;46.090;6.350;2022-07-12T12:43:55;97012.38;;;32.13;28.52
64610;BME280;51019;46.090;6.350;2022-07-12T12:46:22;97016.28;;;32.77;28.07
64610;BME280;51019;46.090;6.350;2022-07-12T12:48:48;97024.59;;;33.52;27.26
64610;BME280;51019;46.090;6.350;2022-07-12T12:51:14;97023.69;;;34.36;27.66
64610;BME280;51019;46.090;6.350;2022-07-12T12:53:40;97020.22;;;35.22;23.88
64610;BME280;51019;46.090;6.350;2022-07-12T12:56:08;97013.28;;;32.38;26.65
64610;BME280;51019;46.090;6.350;2022-07-12T12:58:36;97015.69;;;32.35;26.68
64610;BME280;51019;46.090;6.350;2022-07-12T13:01:02;97007.03;;;32.58;25.00
64610;BME280;51019;46.090;6.350;2022-07-12T13:03:28;97014.19;;;35.02;22.57
64610;BME280;51019;46.090;6.350;2022-07-12T13:05:54;97017.41;;;35.09;22.01
64610;BME280;51019;46.090;6.350;2022-07-12T13:08:20;97021.34;;;35.50;21.24
64610;BME280;51019;46.090;6.350;2022-07-12T13:10:46;97014.38;;;35.87;19.34
64610;BME280;51019;46.090;6.350;2022-07-12T13:13:12;97019.34;;;35.56;18.89
64610;BME280;51019;46.090;6.350;2022-07-12T13:15:39;97015.53;;;35.04;20.35
64610;BME280;51019;46.090;6.350;2022-07-12T13:18:05;96996.53;;;35.28;18.74
64610;BME280;51019;46.090;6.350;2022-07-12T13:20:31;97002.50;;;35.54;18.36
64610;BME280;51019;46.090;6.350;2022-07-12T13:22:58;97013.28;;;36.07;19.79